sensor_id;sensor_type;location;lat;lon;timestamp;P1;durP1;ratioP1;P2;durP2;ratioP2
53267;SDS011;39156;51.176;6.738;2023-10-13T00:00:33;41.17;;;38.40;;
53267;SDS011;39156;51.176;6.738;2023-10-13T00:03:01;43.92;;;40.92;;
53267;SDS011;39156;51.176;6.738;2023-10-13T00:05:30;39.97;;;37.47;;
53267;SDS011;39156;51.176;6.738;2023-10-13T00:08:01;41.00;;;38.50;;
53267;SDS011;39156;51.176;6.738;2023-10-13T00:10:29;41.22;;;38.60;;
53267;SDS011;39156;51.176;6.738;2023-10-13T00:15:31;40.45;;;38.05;;
53267;SDS011;39156;51.176;6.738;2023-10-13T00:18:05;41.20;;;38.70;;
53267;SDS011;39156;51.176;6.738;2023-10-13T00:20:43;41.10;;;38.60;;
53267;SDS011;39156;51.176;6.738;2023-10-13T00:23:15;42.72;;;40.10;;
53267;SDS011;39156;51.176;6.738;2023-10-13T00:25:46;40.83;;;37.97;;
53267;SDS011;39156;51.176;6.738;2023-10-13T00:28:24;40.70;;;38.13;;
53267;SDS011;39156;51.176;6.738;2023-10-13T00:30:52;40.40;;;38.00;;
53267;SDS011;39156;51.176;6.738;2023-10-13T00:33:26;40.53;;;38.00;;
53267;SDS011;39156;51.176;6.738;2023-10-13T00:35:52;41.28;;;38.78;;
53267;SDS011;39156;51.176;6.738;2023-10-13T00:38:19;41.30;;;38.60;;
53267;SDS011;39156;51.176;6.738;2023-10-13T00:40:45;39.60;;;37.10;;
53267;SDS011;39156;51.176;6.738;2023-10-13T00:43:18;39.50;;;37.10;;
53267;SDS011;39156;51.176;6.738;2023-10-13T00:45:45;40.75;;;38.35;;
53267;SDS011;39156;51.176;6.738;2023-10-13T00:48:22;42.30;;;39.70;;
53267;SDS011;39156;51.176;6.738;2023-10-13T00:51:09;41.10;;;38.40;;
53267;SDS011;39156;51.176;6.738;2023-10-13T00:53:43;39.65;;;37.25;;
53267;SDS011;39156;51.176;6.738;2023-10-13T00:56:11;40.83;;;38.30;;
53267;SDS011;39156;51.176;6.738;2023-10-13T00:58:47;40.42;;;37.70;;
53267;SDS011;39156;51.176;6.738;2023-10-13T01:01:17;40.25;;;37.97;;
53267;SDS011;39156;51.176;6.738;2023-10-13T01:03:50;40.53;;;38.03;;
53267;SDS011;39156;51.176;6.738;2023-10-13T01:06:21;40.33;;;37.90;;
53267;SDS011;39156;51.176;6.738;2023-10-13T01:08:57;39.53;;;37.15;;
53267;SDS011;39156;51.176;6.738;2023-10-13T01:11:45;39.40;;;36.88;;
53267;SDS011;39156;51.176;6.738;2023-10-13T01:14:17;40.92;;;38.53;;
53267;SDS011;39156;51.176;6.738;2023-10-13T01:16:48;42.30;;;39.50;;
53267;SDS011;39156;51.176;6.738;2023-10-13T01:19:17;40.25;;;37.28;;
53267;SDS011;39156;51.176;6.738;2023-10-13T01:21:52;40.30;;;37.60;;
53267;SDS011;39156;51.176;6.738;2023-10-13T01:24:27;40.97;;;38.72;;
53267;SDS011;39156;51.176;6.738;2023-10-13T01:26:56;40.53;;;38.08;;
53267;SDS011;39156;51.176;6.738;2023-10-13T01:29:25;39.88;;;37.38;;
53267;SDS011;39156;51.176;6.738;2023-10-13T01:31:54;41.90;;;39.45;;
53267;SDS011;39156;51.176;6.738;2023-10-13T01:34:20;40.20;;;37.97;;
53267;SDS011;39156;51.176;6.738;2023-10-13T01:36:48;39.88;;;37.30;;
53267;SDS011;39156;51.176;6.738;2023-10-13T01:39:22;40.63;;;38.10;;
53267;SDS011;39156;51.176;6.738;2023-10-13T01:41:54;38.67;;;36.25;;
53267;SDS011;39156;51.176;6.738;2023-10-13T01:44:26;39.83;;;37.45;;
53267;SDS011;39156;51.176;6.738;2023-10-13T01:46:58;40.47;;;38.08;;
53267;SDS011;39156;51.176;6.738;2023-10-13T01:49:25;40.17;;;37.75;;
53267;SDS011;39156;51.176;6.738;2023-10-13T01:51:51;41.45;;;39.05;;
53267;SDS011;39156;51.176;6.738;2023-10-13T01:54:17;42.20;;;39.63;;
53267;SDS011;39156;51.176;6.738;2023-10-13T01:56:43;41.00;;;38.60;;
53267;SDS011;39156;51.176;6.738;2023-10-13T01:59:12;42.33;;;39.73;;
53267;SDS011;39156;51.176;6.738;2023-10-13T02:01:38;41.75;;;39.22;;
53267;SDS011;39156;51.176;6.738;2023-10-13T02:04:08;41.88;;;38.97;;
53267;SDS011;39156;51.176;6.738;2023-10-13T02:06:35;39.05;;;36.72;;
53267;SDS011;39156;51.176;6.738;2023-10-13T02:09:03;41.28;;;38.70;;
53267;SDS011;39156;51.176;6.738;2023-10-13T02:11:39;40.63;;;38.08;;
53267;SDS011;39156;51.176;6.738;2023-10-13T02:14:06;38.15;;;35.85;;
53267;SDS011;39156;51.176;6.738;2023-10-13T02:16:32;40.67;;;38.13;;
53267;SDS011;39156;51.176;6.738;2023-10-13T02:18:58;41.20;;;38.70;;
53267;SDS011;39156;51.176;6.738;2023-10-13T02:21:32;40.78;;;38.40;;
53267;SDS011;39156;51.176;6.738;2023-10-13T02:24:04;41.00;;;38.38;;
53267;SDS011;39156;51.176;6.738;2023-10-13T02:26:38;42.67;;;39.88;;
53267;SDS011;39156;51.176;6.738;2023-10-13T02:29:05;42.10;;;39.58;;
53267;SDS011;39156;51.176;6.738;2023-10-13T02:31:38;41.00;;;38.40;;
53267;SDS011;39156;51.176;6.738;2023-10-13T02:34:08;40.63;;;38.17;;
53267;SDS011;39156;51.176;6.738;2023-10-13T02:36:34;40.87;;;38.27;;
53267;SDS011;39156;51.176;6.738;2023-10-13T02:39:04;41.95;;;39.45;;
53267;SDS011;39156;51.176;6.738;2023-10-13T02:41:34;41.10;;;38.70;;
53267;SDS011;39156;51.176;6.738;2023-10-13T02:44:03;41.10;;;38.72;;
53267;SDS011;39156;51.176;6.738;2023-10-13T02:46:31;42.08;;;39.45;;
53267;SDS011;39156;51.176;6.738;2023-10-13T02:49:01;40.70;;;38.35;;
53267;SDS011;39156;51.176;6.738;2023-10-13T02:51:37;41.60;;;39.03;;
53267;SDS011;39156;51.176;6.738;2023-10-13T02:54:07;40.28;;;37.88;;
53267;SDS011;39156;51.176;6.738;2023-10-13T02:56:37;40.63;;;38.30;;
53267;SDS011;39156;51.176;6.738;2023-10-13T02:59:14;42.50;;;39.97;;
53267;SDS011;39156;51.176;6.738;2023-10-13T03:01:40;42.80;;;40.07;;
53267;SDS011;39156;51.176;6.738;2023-10-13T03:04:06;41.23;;;38.53;;
53267;SDS011;39156;51.176;6.738;2023-10-13T03:06:34;42.00;;;39.30;;
53267;SDS011;39156;51.176;6.738;2023-10-13T03:09:01;40.97;;;38.50;;
53267;SDS011;39156;51.176;6.738;2023-10-13T03:11:43;41.50;;;38.90;;
53267;SDS011;39156;51.176;6.738;2023-10-13T03:16:56;41.13;;;38.30;;
53267;SDS011;39156;51.176;6.738;2023-10-13T03:19:30;40.30;;;37.90;;
53267;SDS011;39156;51.176;6.738;2023-10-13T03:21:59;42.58;;;39.83;;
53267;SDS011;39156;51.176;6.738;2023-10-13T03:24:34;41.00;;;38.60;;
53267;SDS011;39156;51.176;6.738;2023-10-13T03:27:01;41.33;;;38.97;;
53267;SDS011;39156;51.176;6.738;2023-10-13T03:29:37;40.50;;;37.78;;
53267;SDS011;39156;51.176;6.738;2023-10-13T03:32:07;41.85;;;39.25;;
53267;SDS011;39156;51.176;6.738;2023-10-13T03:34:38;40.67;;;38.28;;
53267;SDS011;39156;51.176;6.738;2023-10-13T03:37:42;40.45;;;38.00;;
53267;SDS011;39156;51.176;6.738;2023-10-13T03:40:12;42.00;;;39.37;;
53267;SDS011;39156;51.176;6.738;2023-10-13T03:42:59;41.92;;;39.15;;
53267;SDS011;39156;51.176;6.738;2023-10-13T03:48:13;40.72;;;38.22;;
53267;SDS011;39156;51.176;6.738;2023-10-13T03:50:49;43.20;;;40.40;;
53267;SDS011;39156;51.176;6.738;2023-10-13T03:53:34;41.58;;;38.70;;
53267;SDS011;39156;51.176;6.738;2023-10-13T03:56:15;42.35;;;39.75;;
53267;SDS011;39156;51.176;6.738;2023-10-13T03:58:49;41.60;;;39.03;;
53267;SDS011;39156;51.176;6.738;2023-10-13T04:01:15;42.10;;;39.50;;
53267;SDS011;39156;51.176;6.738;2023-10-13T04:03:42;41.78;;;39.08;;
53267;SDS011;39156;51.176;6.738;2023-10-13T04:06:25;41.67;;;38.85;;
53267;SDS011;39156;51.176;6.738;2023-10-13T04:09:13;43.03;;;40.20;;
53267;SDS011;39156;51.176;6.738;2023-10-13T04:17:37;40.10;;;37.70;;
53267;SDS011;39156;51.176;6.738;2023-10-13T04:20:09;40.75;;;38.25;;
53267;SDS011;39156;51.176;6.738;2023-10-13T04:22:35;43.80;;;40.93;;
53267;SDS011;39156;51.176;6.738;2023-10-13T04:25:12;39.83;;;37.10;;
53267;SDS011;39156;51.176;6.738;2023-10-13T04:28:04;41.78;;;38.97;;
53267;SDS011;39156;51.176;6.738;2023-10-13T04:30:40;41.42;;;39.00;;
53267;SDS011;39156;51.176;6.738;2023-10-13T04:36:30;42.10;;;39.33;;
53267;SDS011;39156;51.176;6.738;2023-10-13T04:38:59;41.33;;;38.83;;
53267;SDS011;39156;51.176;6.738;2023-10-13T04:41:32;41.85;;;38.85;;
53267;SDS011;39156;51.176;6.738;2023-10-13T04:44:04;40.75;;;38.10;;
53267;SDS011;39156;51.176;6.738;2023-10-13T04:46:51;42.80;;;40.00;;
53267;SDS011;39156;51.176;6.738;2023-10-13T04:49:34;41.53;;;38.97;;
53267;SDS011;39156;51.176;6.738;2023-10-13T04:52:07;41.80;;;39.35;;
53267;SDS011;39156;51.176;6.738;2023-10-13T04:54:34;40.63;;;38.10;;
53267;SDS011;39156;51.176;6.738;2023-10-13T04:57:15;42.22;;;39.53;;
53267;SDS011;39156;51.176;6.738;2023-10-13T05:00:00;40.50;;;38.00;;
53267;SDS011;39156;51.176;6.738;2023-10-13T05:02:45;41.35;;;38.65;;
53267;SDS011;39156;51.176;6.738;2023-10-13T05:05:30;40.65;;;38.10;;
53267;SDS011;39156;51.176;6.738;2023-10-13T05:08:16;41.33;;;38.53;;
53267;SDS011;39156;51.176;6.738;2023-10-13T05:11:04;44.17;;;41.08;;
53267;SDS011;39156;51.176;6.738;2023-10-13T05:14:00;41.50;;;39.10;;
53267;SDS011;39156;51.176;6.738;2023-10-13T05:16:44;42.00;;;39.45;;
53267;SDS011;39156;51.176;6.738;2023-10-13T05:19:28;40.42;;;37.92;;
53267;SDS011;39156;51.176;6.738;2023-10-13T05:22:12;40.13;;;37.72;;
53267;SDS011;39156;51.176;6.738;2023-10-13T05:24:57;40.50;;;38.05;;
53267;SDS011;39156;51.176;6.738;2023-10-13T05:27:41;40.33;;;37.75;;
53267;SDS011;39156;51.176;6.738;2023-10-13T05:30:25;41.92;;;39.13;;
53267;SDS011;39156;51.176;6.738;2023-10-13T05:33:09;40.30;;;37.75;;
53267;SDS011;39156;51.176;6.738;2023-10-13T05:35:54;41.47;;;38.80;;
53267;SDS011;39156;51.176;6.738;2023-10-13T05:38:38;40.30;;;37.55;;
53267;SDS011;39156;51.176;6.738;2023-10-13T05:41:22;40.60;;;38.13;;
53267;SDS011;39156;51.176;6.738;2023-10-13T05:44:06;41.03;;;38.22;;
53267;SDS011;39156;51.176;6.738;2023-10-13T05:46:50;40.28;;;37.75;;
53267;SDS011;39156;51.176;6.738;2023-10-13T05:49:35;40.47;;;37.72;;
53267;SDS011;39156;51.176;6.738;2023-10-13T05:52:29;41.47;;;38.80;;
53267;SDS011;39156;51.176;6.738;2023-10-13T05:55:14;39.63;;;37.22;;
53267;SDS011;39156;51.176;6.738;2023-10-13T05:57:58;39.10;;;36.42;;
53267;SDS011;39156;51.176;6.738;2023-10-13T06:00:42;41.47;;;38.97;;
53267;SDS011;39156;51.176;6.738;2023-10-13T06:03:26;40.60;;;37.97;;
53267;SDS011;39156;51.176;6.738;2023-10-13T06:06:10;38.92;;;36.53;;
53267;SDS011;39156;51.176;6.738;2023-10-13T06:08:54;39.60;;;36.63;;
53267;SDS011;39156;51.176;6.738;2023-10-13T06:11:38;39.60;;;37.05;;
53267;SDS011;39156;51.176;6.738;2023-10-13T06:14:22;42.17;;;39.40;;
53267;SDS011;39156;51.176;6.738;2023-10-13T06:17:07;38.97;;;36.60;;
53267;SDS011;39156;51.176;6.738;2023-10-13T06:19:51;39.42;;;36.55;;
53267;SDS011;39156;51.176;6.738;2023-10-13T06:22:43;39.17;;;36.78;;
53267;SDS011;39156;51.176;6.738;2023-10-13T06:25:31;39.38;;;36.67;;
53267;SDS011;39156;51.176;6.738;2023-10-13T06:28:16;38.42;;;35.92;;
53267;SDS011;39156;51.176;6.738;2023-10-13T06:31:01;39.45;;;36.95;;
53267;SDS011;39156;51.176;6.738;2023-10-13T06:33:32;42.58;;;39.47;;
53267;SDS011;39156;51.176;6.738;2023-10-13T06:35:59;38.90;;;36.45;;
53267;SDS011;39156;51.176;6.738;2023-10-13T06:38:30;40.20;;;37.55;;
53267;SDS011;39156;51.176;6.738;2023-10-13T06:41:00;39.63;;;37.13;;
53267;SDS011;39156;51.176;6.738;2023-10-13T06:43:33;40.25;;;37.40;;
53267;SDS011;39156;51.176;6.738;2023-10-13T06:46:05;39.20;;;36.58;;
53267;SDS011;39156;51.176;6.738;2023-10-13T06:48:32;43.92;;;40.85;;
53267;SDS011;39156;51.176;6.738;2023-10-13T06:51:00;39.85;;;37.22;;
53267;SDS011;39156;51.176;6.738;2023-10-13T06:53:43;40.42;;;37.55;;
53267;SDS011;39156;51.176;6.738;2023-10-13T06:56:16;41.25;;;38.45;;
53267;SDS011;39156;51.176;6.738;2023-10-13T06:58:57;39.45;;;36.80;;
53267;SDS011;39156;51.176;6.738;2023-10-13T07:01:29;41.22;;;38.63;;
53267;SDS011;39156;51.176;6.738;2023-10-13T07:03:55;41.17;;;38.47;;
53267;SDS011;39156;51.176;6.738;2023-10-13T07:06:26;39.38;;;36.72;;
53267;SDS011;39156;51.176;6.738;2023-10-13T07:08:56;41.95;;;38.67;;
53267;SDS011;39156;51.176;6.738;2023-10-13T07:11:25;40.37;;;36.57;;
53267;SDS011;39156;51.176;6.738;2023-10-13T07:14:03;40.35;;;37.83;;
53267;SDS011;39156;51.176;6.738;2023-10-13T07:16:57;39.25;;;36.67;;
53267;SDS011;39156;51.176;6.738;2023-10-13T07:19:25;38.50;;;36.10;;
53267;SDS011;39156;51.176;6.738;2023-10-13T07:21:53;41.28;;;38.60;;
53267;SDS011;39156;51.176;6.738;2023-10-13T07:24:26;40.78;;;38.10;;
53267;SDS011;39156;51.176;6.738;2023-10-13T07:27:04;38.28;;;35.75;;
53267;SDS011;39156;51.176;6.738;2023-10-13T07:29:31;38.97;;;36.33;;
53267;SDS011;39156;51.176;6.738;2023-10-13T07:31:59;39.97;;;36.90;;
53267;SDS011;39156;51.176;6.738;2023-10-13T07:34:28;38.92;;;36.42;;
53267;SDS011;39156;51.176;6.738;2023-10-13T07:36:57;40.17;;;37.08;;
53267;SDS011;39156;51.176;6.738;2023-10-13T07:39:28;39.08;;;36.58;;
53267;SDS011;39156;51.176;6.738;2023-10-13T07:41:58;41.00;;;38.60;;
53267;SDS011;39156;51.176;6.738;2023-10-13T07:44:29;39.35;;;36.85;;
53267;SDS011;39156;51.176;6.738;2023-10-13T07:46:58;39.08;;;36.33;;
53267;SDS011;39156;51.176;6.738;2023-10-13T07:49:31;38.58;;;35.72;;
53267;SDS011;39156;51.176;6.738;2023-10-13T07:52:03;38.63;;;35.90;;
53267;SDS011;39156;51.176;6.738;2023-10-13T07:54:51;38.72;;;36.20;;
53267;SDS011;39156;51.176;6.738;2023-10-13T07:57:37;40.60;;;37.28;;
53267;SDS011;39156;51.176;6.738;2023-10-13T08:00:18;39.72;;;36.92;;
53267;SDS011;39156;51.176;6.738;2023-10-13T08:02:58;37.35;;;34.40;;
53267;SDS011;39156;51.176;6.738;2023-10-13T08:05:45;38.42;;;35.92;;
53267;SDS011;39156;51.176;6.738;2023-10-13T08:08:44;37.17;;;34.63;;
53267;SDS011;39156;51.176;6.738;2023-10-13T08:11:15;38.88;;;35.97;;
53267;SDS011;39156;51.176;6.738;2023-10-13T08:13:48;38.08;;;35.58;;
53267;SDS011;39156;51.176;6.738;2023-10-13T08:16:23;38.38;;;35.40;;
53267;SDS011;39156;51.176;6.738;2023-10-13T08:19:21;38.53;;;35.60;;
53267;SDS011;39156;51.176;6.738;2023-10-13T08:22:04;38.05;;;34.90;;
53267;SDS011;39156;51.176;6.738;2023-10-13T08:24:43;38.05;;;35.65;;
53267;SDS011;39156;51.176;6.738;2023-10-13T08:27:10;36.88;;;34.17;;
53267;SDS011;39156;51.176;6.738;2023-10-13T08:29:43;36.60;;;33.78;;
53267;SDS011;39156;51.176;6.738;2023-10-13T08:32:25;34.80;;;32.35;;
53267;SDS011;39156;51.176;6.738;2023-10-13T08:37:34;33.08;;;30.70;;
53267;SDS011;39156;51.176;6.738;2023-10-13T08:40:24;32.05;;;29.77;;
53267;SDS011;39156;51.176;6.738;2023-10-13T08:45:37;32.20;;;29.85;;
53267;SDS011;39156;51.176;6.738;2023-10-13T08:48:10;32.13;;;29.90;;
53267;SDS011;39156;51.176;6.738;2023-10-13T08:50:37;32.22;;;29.65;;
53267;SDS011;39156;51.176;6.738;2023-10-13T08:55:56;36.45;;;29.25;;
53267;SDS011;39156;51.176;6.738;2023-10-13T08:58:32;32.60;;;30.20;;
53267;SDS011;39156;51.176;6.738;2023-10-13T09:04:01;32.72;;;30.27;;
53267;SDS011;39156;51.176;6.738;2023-10-13T09:06:44;33.25;;;30.95;;
53267;SDS011;39156;51.176;6.738;2023-10-13T09:09:23;33.25;;;31.13;;
53267;SDS011;39156;51.176;6.738;2023-10-13T09:11:55;34.05;;;31.25;;
53267;SDS011;39156;51.176;6.738;2023-10-13T09:14:37;34.35;;;31.83;;
53267;SDS011;39156;51.176;6.738;2023-10-13T09:17:22;33.20;;;30.73;;
53267;SDS011;39156;51.176;6.738;2023-10-13T09:19:58;33.28;;;30.90;;
53267;SDS011;39156;51.176;6.738;2023-10-13T09:22:45;32.97;;;30.83;;
53267;SDS011;39156;51.176;6.738;2023-10-13T09:25:27;32.50;;;30.40;;
53267;SDS011;39156;51.176;6.738;2023-10-13T09:27:59;32.92;;;30.55;;
53267;SDS011;39156;51.176;6.738;2023-10-13T09:33:09;33.50;;;31.30;;
53267;SDS011;39156;51.176;6.738;2023-10-13T09:35:41;33.60;;;31.08;;
53267;SDS011;39156;51.176;6.738;2023-10-13T09:38:14;33.53;;;31.30;;
53267;SDS011;39156;51.176;6.738;2023-10-13T09:40:43;33.20;;;30.85;;
53267;SDS011;39156;51.176;6.738;2023-10-13T09:43:16;33.80;;;31.50;;
53267;SDS011;39156;51.176;6.738;2023-10-13T09:45:47;33.05;;;30.58;;
53267;SDS011;39156;51.176;6.738;2023-10-13T09:48:35;32.17;;;29.73;;
53267;SDS011;39156;51.176;6.738;2023-10-13T09:51:14;33.17;;;30.65;;
53267;SDS011;39156;51.176;6.738;2023-10-13T09:53:48;33.00;;;30.45;;
53267;SDS011;39156;51.176;6.738;2023-10-13T09:56:42;33.25;;;30.85;;
53267;SDS011;39156;51.176;6.738;2023-10-13T09:59:17;34.00;;;31.55;;
53267;SDS011;39156;51.176;6.738;2023-10-13T10:01:51;33.60;;;31.10;;
53267;SDS011;39156;51.176;6.738;2023-10-13T10:04:24;32.95;;;30.55;;
53267;SDS011;39156;51.176;6.738;2023-10-13T10:06:53;33.55;;;30.77;;
53267;SDS011;39156;51.176;6.738;2023-10-13T10:09:27;33.38;;;31.17;;
53267;SDS011;39156;51.176;6.738;2023-10-13T10:12:08;34.00;;;31.63;;
53267;SDS011;39156;51.176;6.738;2023-10-13T10:15:20;34.30;;;31.77;;
53267;SDS011;39156;51.176;6.738;2023-10-13T10:18:17;33.47;;;31.05;;
53267;SDS011;39156;51.176;6.738;2023-10-13T10:20:48;34.05;;;31.75;;
53267;SDS011;39156;51.176;6.738;2023-10-13T10:23:27;33.83;;;31.67;;
53267;SDS011;39156;51.176;6.738;2023-10-13T10:26:13;35.78;;;32.13;;
53267;SDS011;39156;51.176;6.738;2023-10-13T10:28:42;35.28;;;32.63;;
53267;SDS011;39156;51.176;6.738;2023-10-13T10:31:09;35.08;;;32.33;;
53267;SDS011;39156;51.176;6.738;2023-10-13T10:33:39;33.65;;;31.33;;
53267;SDS011;39156;51.176;6.738;2023-10-13T10:36:06;35.00;;;32.15;;
53267;SDS011;39156;51.176;6.738;2023-10-13T10:38:51;35.67;;;32.63;;
53267;SDS011;39156;51.176;6.738;2023-10-13T10:41:27;34.80;;;32.20;;
53267;SDS011;39156;51.176;6.738;2023-10-13T10:44:08;33.60;;;31.50;;
53267;SDS011;39156;51.176;6.738;2023-10-13T10:46:41;33.97;;;31.67;;
53267;SDS011;39156;51.176;6.738;2023-10-13T10:49:18;35.10;;;32.58;;
53267;SDS011;39156;51.176;6.738;2023-10-13T10:51:56;34.15;;;31.95;;
53267;SDS011;39156;51.176;6.738;2023-10-13T10:54:26;33.63;;;31.50;;
53267;SDS011;39156;51.176;6.738;2023-10-13T10:56:56;35.03;;;32.33;;
53267;SDS011;39156;51.176;6.738;2023-10-13T10:59:47;34.35;;;31.88;;
53267;SDS011;39156;51.176;6.738;2023-10-13T11:02:33;35.67;;;32.45;;
53267;SDS011;39156;51.176;6.738;2023-10-13T11:04:58;35.30;;;32.55;;
53267;SDS011;39156;51.176;6.738;2023-10-13T11:07:25;34.05;;;31.88;;
53267;SDS011;39156;51.176;6.738;2023-10-13T11:09:52;34.50;;;32.13;;
53267;SDS011;39156;51.176;6.738;2023-10-13T11:12:22;35.17;;;32.58;;
53267;SDS011;39156;51.176;6.738;2023-10-13T11:17:48;34.58;;;32.00;;
53267;SDS011;39156;51.176;6.738;2023-10-13T11:20:23;34.90;;;32.40;;
53267;SDS011;39156;51.176;6.738;2023-10-13T11:22:58;35.80;;;33.40;;
53267;SDS011;39156;51.176;6.738;2023-10-13T11:25:31;34.92;;;32.08;;
53267;SDS011;39156;51.176;6.738;2023-10-13T11:28:13;35.50;;;32.50;;
53267;SDS011;39156;51.176;6.738;2023-10-13T11:30:54;35.22;;;32.15;;
53267;SDS011;39156;51.176;6.738;2023-10-13T11:33:24;35.30;;;32.70;;
53267;SDS011;39156;51.176;6.738;2023-10-13T11:35:54;35.25;;;32.75;;
53267;SDS011;39156;51.176;6.738;2023-10-13T11:38:24;34.70;;;32.10;;
53267;SDS011;39156;51.176;6.738;2023-10-13T11:41:04;36.15;;;32.83;;
53267;SDS011;39156;51.176;6.738;2023-10-13T11:43:33;35.08;;;32.35;;
53267;SDS011;39156;51.176;6.738;2023-10-13T11:49:02;35.03;;;32.42;;
53267;SDS011;39156;51.176;6.738;2023-10-13T11:51:41;35.25;;;32.47;;
53267;SDS011;39156;51.176;6.738;2023-10-13T11:54:16;35.25;;;32.25;;
53267;SDS011;39156;51.176;6.738;2023-10-13T11:56:46;34.95;;;32.35;;
53267;SDS011;39156;51.176;6.738;2023-10-13T11:59:13;35.20;;;32.20;;
53267;SDS011;39156;51.176;6.738;2023-10-13T12:04:30;36.05;;;33.03;;
53267;SDS011;39156;51.176;6.738;2023-10-13T12:06:58;34.78;;;32.47;;
53267;SDS011;39156;51.176;6.738;2023-10-13T12:09:43;35.80;;;32.78;;
53267;SDS011;39156;51.176;6.738;2023-10-13T12:12:21;36.53;;;33.40;;
53267;SDS011;39156;51.176;6.738;2023-10-13T12:14:52;35.97;;;33.42;;
53267;SDS011;39156;51.176;6.738;2023-10-13T12:17:22;35.70;;;33.10;;
53267;SDS011;39156;51.176;6.738;2023-10-13T12:19:53;37.08;;;33.70;;
53267;SDS011;39156;51.176;6.738;2023-10-13T12:22:20;36.85;;;33.55;;
53267;SDS011;39156;51.176;6.738;2023-10-13T12:25:03;35.65;;;32.92;;
53267;SDS011;39156;51.176;6.738;2023-10-13T12:27:52;37.55;;;34.50;;
53267;SDS011;39156;51.176;6.738;2023-10-13T12:30:22;36.05;;;33.00;;
53267;SDS011;39156;51.176;6.738;2023-10-13T12:33:13;36.90;;;33.60;;
53267;SDS011;39156;51.176;6.738;2023-10-13T12:35:41;35.55;;;32.65;;
53267;SDS011;39156;51.176;6.738;2023-10-13T12:38:28;36.92;;;33.17;;
53267;SDS011;39156;51.176;6.738;2023-10-13T12:41:04;36.38;;;33.55;;
53267;SDS011;39156;51.176;6.738;2023-10-13T12:43:51;35.40;;;32.80;;
53267;SDS011;39156;51.176;6.738;2023-10-13T12:46:36;36.10;;;32.67;;
53267;SDS011;39156;51.176;6.738;2023-10-13T12:49:34;36.47;;;32.92;;
53267;SDS011;39156;51.176;6.738;2023-10-13T12:52:06;36.13;;;33.25;;
53267;SDS011;39156;51.176;6.738;2023-10-13T12:54:41;36.15;;;33.17;;
53267;SDS011;39156;51.176;6.738;2023-10-13T12:57:24;36.58;;;33.47;;
53267;SDS011;39156;51.176;6.738;2023-10-13T12:59:50;36.28;;;33.13;;
53267;SDS011;39156;51.176;6.738;2023-10-13T13:02:19;36.17;;;33.67;;
53267;SDS011;39156;51.176;6.738;2023-10-13T13:04:49;36.83;;;33.92;;
53267;SDS011;39156;51.176;6.738;2023-10-13T13:07:19;35.55;;;32.65;;
53267;SDS011;39156;51.176;6.738;2023-10-13T13:09:46;36.58;;;33.28;;
53267;SDS011;39156;51.176;6.738;2023-10-13T13:12:11;36.20;;;32.80;;
53267;SDS011;39156;51.176;6.738;2023-10-13T13:14:37;35.20;;;32.47;;
53267;SDS011;39156;51.176;6.738;2023-10-13T13:17:06;37.35;;;33.92;;
53267;SDS011;39156;51.176;6.738;2023-10-13T13:19:36;36.28;;;33.05;;
53267;SDS011;39156;51.176;6.738;2023-10-13T13:22:05;35.85;;;32.55;;
53267;SDS011;39156;51.176;6.738;2023-10-13T13:24:38;35.33;;;32.80;;
53267;SDS011;39156;51.176;6.738;2023-10-13T13:27:12;36.78;;;33.75;;
53267;SDS011;39156;51.176;6.738;2023-10-13T13:29:48;36.50;;;33.33;;
53267;SDS011;39156;51.176;6.738;2023-10-13T13:32:14;36.63;;;33.53;;
53267;SDS011;39156;51.176;6.738;2023-10-13T13:34:57;35.97;;;32.97;;
53267;SDS011;39156;51.176;6.738;2023-10-13T13:37:30;36.05;;;33.08;;
53267;SDS011;39156;51.176;6.738;2023-10-13T13:39:57;37.97;;;34.10;;
53267;SDS011;39156;51.176;6.738;2023-10-13T13:42:39;36.85;;;34.05;;
53267;SDS011;39156;51.176;6.738;2023-10-13T13:45:13;37.65;;;34.10;;
53267;SDS011;39156;51.176;6.738;2023-10-13T13:47:54;37.40;;;34.03;;
53267;SDS011;39156;51.176;6.738;2023-10-13T13:50:24;37.08;;;34.08;;
53267;SDS011;39156;51.176;6.738;2023-10-13T13:52:53;36.55;;;33.45;;
53267;SDS011;39156;51.176;6.738;2023-10-13T13:55:23;43.03;;;33.17;;
53267;SDS011;39156;51.176;6.738;2023-10-13T13:57:55;36.05;;;33.15;;
53267;SDS011;39156;51.176;6.738;2023-10-13T14:00:21;37.15;;;34.08;;
53267;SDS011;39156;51.176;6.738;2023-10-13T14:03:06;36.08;;;33.13;;
53267;SDS011;39156;51.176;6.738;2023-10-13T14:05:41;38.20;;;34.42;;
53267;SDS011;39156;51.176;6.738;2023-10-13T14:08:07;35.95;;;32.55;;
53267;SDS011;39156;51.176;6.738;2023-10-13T14:10:37;35.67;;;32.95;;
53267;SDS011;39156;51.176;6.738;2023-10-13T14:13:22;35.42;;;32.72;;
53267;SDS011;39156;51.176;6.738;2023-10-13T14:16:08;37.08;;;33.85;;
53267;SDS011;39156;51.176;6.738;2023-10-13T14:18:41;37.88;;;34.35;;
53267;SDS011;39156;51.176;6.738;2023-10-13T14:21:11;37.63;;;34.10;;
53267;SDS011;39156;51.176;6.738;2023-10-13T14:23:42;37.13;;;33.88;;
53267;SDS011;39156;51.176;6.738;2023-10-13T14:26:15;37.00;;;33.85;;
53267;SDS011;39156;51.176;6.738;2023-10-13T14:28:49;36.47;;;33.60;;
53267;SDS011;39156;51.176;6.738;2023-10-13T14:31:32;36.00;;;33.35;;
53267;SDS011;39156;51.176;6.738;2023-10-13T14:34:02;36.55;;;33.67;;
53267;SDS011;39156;51.176;6.738;2023-10-13T14:36:28;35.55;;;33.05;;
53267;SDS011;39156;51.176;6.738;2023-10-13T14:38:59;35.72;;;33.00;;
53267;SDS011;39156;51.176;6.738;2023-10-13T14:41:26;38.10;;;34.95;;
53267;SDS011;39156;51.176;6.738;2023-10-13T14:43:58;41.83;;;34.78;;
53267;SDS011;39156;51.176;6.738;2023-10-13T14:46:30;35.85;;;33.25;;
53267;SDS011;39156;51.176;6.738;2023-10-13T14:48:56;36.90;;;34.05;;
53267;SDS011;39156;51.176;6.738;2023-10-13T14:51:22;36.60;;;33.67;;
53267;SDS011;39156;51.176;6.738;2023-10-13T14:53:50;37.85;;;34.30;;
53267;SDS011;39156;51.176;6.738;2023-10-13T14:56:21;36.95;;;33.88;;
53267;SDS011;39156;51.176;6.738;2023-10-13T14:58:50;36.08;;;33.35;;
53267;SDS011;39156;51.176;6.738;2023-10-13T15:01:17;36.78;;;34.17;;
53267;SDS011;39156;51.176;6.738;2023-10-13T15:03:46;36.70;;;33.90;;
53267;SDS011;39156;51.176;6.738;2023-10-13T15:06:20;37.35;;;33.60;;
53267;SDS011;39156;51.176;6.738;2023-10-13T15:08:53;36.33;;;33.67;;
53267;SDS011;39156;51.176;6.738;2023-10-13T15:11:23;35.50;;;32.92;;
53267;SDS011;39156;51.176;6.738;2023-10-13T15:14:05;35.40;;;32.55;;
53267;SDS011;39156;51.176;6.738;2023-10-13T15:16:33;36.85;;;34.10;;
53267;SDS011;39156;51.176;6.738;2023-10-13T15:18:59;36.70;;;34.00;;
53267;SDS011;39156;51.176;6.738;2023-10-13T15:21:28;36.78;;;34.13;;
53267;SDS011;39156;51.176;6.738;2023-10-13T15:24:01;37.35;;;33.85;;
53267;SDS011;39156;51.176;6.738;2023-10-13T15:26:31;37.03;;;34.20;;
53267;SDS011;39156;51.176;6.738;2023-10-13T15:29:10;36.83;;;33.72;;
53267;SDS011;39156;51.176;6.738;2023-10-13T15:31:41;37.55;;;34.95;;
53267;SDS011;39156;51.176;6.738;2023-10-13T15:34:19;37.30;;;34.58;;
53267;SDS011;39156;51.176;6.738;2023-10-13T15:36:44;36.90;;;34.20;;
53267;SDS011;39156;51.176;6.738;2023-10-13T15:39:11;35.97;;;33.58;;
53267;SDS011;39156;51.176;6.738;2023-10-13T15:41:40;36.38;;;33.78;;
53267;SDS011;39156;51.176;6.738;2023-10-13T15:46:38;37.47;;;34.58;;